*** The Vicarage Weather Feed ***

Nearby METAR Reports


 

CYOO - Oshawa, Municipal Airport, Ontario, Canada
Distance from station: NO 3.2km
Mise à jour: 19/11/2019 10:00
couvert
couvert
 Wind from calm
Vent: calme
Température: 1°C
Point de rosée: 0°C
Humidité: 93%
Baromètre: 1009.8 hPa
Clouds: couvert
Visibility: 14 km
Cloud details: couvert 549 m
2019/11/19 15:00 CYOO 191500Z AUTO 00000KT 9SM OVC018 01/00 A2982 RMK SLP106
CYKZ - Toronto, Buttonville, Municipal Airport, Ontario, Canada
Distance from station: O 39.75km
Mise à jour: 03/01/2019 04:00
NOT Current
partiellement nuageux
partiellement nuageux
 Wind from OSO
Vent: OSO 7 km/h
Température: -3°C
Wind Chill: -6°C
Point de rosée: -5°C
Humidité: 86%
Baromètre: 1010.8 hPa
Clouds: partiellement nuageux
Visibility: 24 km
Cloud details: partiellement nuageux 1219 m
2019/01/03 09:00 CYKZ 030900Z 25004KT 15SM SCT040 M03/M05 A2985 RMK SC3 LAST STFD OBS FAREWELL SLP118
 
CXTO - Toronto City, Buttonville, Ontario, Canada
Distance from station: OSO 49km
Mise à jour: 19/11/2019 10:00

 
Température: 3°C
Point de rosée: 0°C
Humidité: 81%
2019/11/19 15:00 CXTO 191500Z AUTO 03/M00 RMK AO1 SLP107 T00261002 51011
CYTZ - Toronto City, Island Airport, Ontario, Canada
Distance from station: SO 51.7km
Mise à jour: 19/11/2019 10:00
couvert
couvert
 Wind from E
Vent: E 7 km/h
Température: 2°C
Wind Chill: 0°C
Point de rosée: 0°C
Humidité: 87%
Baromètre: 1010.2 hPa
Clouds: couvert
Visibility: 14 km
Cloud details: couvert 579 m
2019/11/19 15:00 CYTZ 191500Z AUTO 10004KT 9SM OVC019 02/00 A2983 RMK SLP107
 
CYPQ - Toronto, Peterborough Airport, Ontario, Canada
Distance from station: NE 54km
Mise à jour: 19/11/2019 10:03
couvert
couvert
 Wind from ENE
Vent: ENE 4 km/h
Température: 1°C
Point de rosée: -2°C
Humidité: 81%
Baromètre: 1009.5 hPa
Clouds: couvert
Visibility: 14 km
Cloud details: couvert 701 m
2019/11/19 15:03 CYPQ 191503Z AUTO 06002KT 9SM OVC023 01/M02 A2981 RMK SLP103
CWNC - Cobourg, (mars), Ontario, Canada
Distance from station: E 57km
Mise à jour: 19/11/2019 10:00

 Wind from ESE
Vent: ESE 2 km/h
Température: 2°C
Point de rosée: -4°C
Humidité: 65%
2019/11/19 15:00 CWNC 191500Z AUTO 11001KT 02/M04 RMK AO1 SLP103 T00201041 51008
 
CYYZ - Toronto, Lester Pearson Airport, Ontario, Canada
Distance from station: O 65.5km
Mise à jour: 19/11/2019 10:00
Mist, couvert
Mist, couvert
 Wind from varies
Vent: varies 4 km/h
Température: 2°C
Point de rosée: 1°C
Humidité: 93%
Baromètre: 1009.8 hPa
Résumé: Mist
Clouds: couvert
Visibility: 10 km
Cloud details: partiellement nuageux 274 m
couvert 457 m
2019/11/19 15:00 CYYZ 191500Z VRB02KT 6SM BR SCT009 OVC015 02/01 A2982 RMK SF3SC5 SLP105
CWGL - Lagoon City, Ontario, Canada
Distance from station: NNO 74km
Mise à jour: 19/11/2019 10:00

 Wind from E
Vent: E 6 km/h
Température: 0°C
Point de rosée: -2°C
Humidité: 87%
2019/11/19 15:00 CWGL 191500Z AUTO 10003KT M00/M02 RMK AO1 SLP085 T10011018 51009
 
CWWZ - Port Weller Airport, Ontario, Canada
Distance from station: SSO 77km
Mise à jour: 19/11/2019 10:00

 Wind from ESE
Vent: ESE 4 km/h
Température: 4°C
Point de rosée: 1°C
Humidité: 81%
2019/11/19 15:00 CWWZ 191500Z AUTO 12002KT 04/01 RMK AO1 SLP103 T00400006 51013
CYSN - St.Catharines Niagara Airport, Ontario, Canada
Distance from station: SSO 81km
Mise à jour: 19/11/2019 10:00
couvert
couvert
 Wind from ENE
Vent: ENE 6 km/h
Température: 3°C
Point de rosée: 1°C
Humidité: 87%
Baromètre: 1009.5 hPa
Clouds: couvert
Visibility: 24 km
Cloud details: nuageux 1006 m
couvert 1524 m
2019/11/19 15:00 CYSN 191500Z 06003KT 15SM BKN033 OVC050 03/01 A2981 RMK SC5SC3 SLP101
This data is offered only as a general guide to local weather conditions. It should not be relied upon in lieu of officially disseminated weather information for determining possible risk to persons or property. This site, including all information contained therein, is made available as is without warranties of any kind, either express or implied. The Vicarage Weather Feed© includes links to other sites for user convenience only. The content of any linked third-party site is not controlled by The Vicarage Weather Feed©. Access to any third-party website through The Vicarage Weather Feed©, regardless of whether or not the third-party site is a linked site, is entirely at the users own risk. Externally sourced content or material is excluded from The Vicarage Weather Feed© copyright and is the copyright and property of the respective provider. Skywarn® and the Skywarn® logo are registered trademarks of the National Oceanic and Atmospheric Administration, used with permission.